Flight Track Log - Related Links

Times and Time Zones

All times are in EDT time to prevent confusion due to time zone crossing. See the N75AW flight status page for this flight to view local times or setup timezone preferences in your user account.


Time Position Orientation Groundspeed Altitude Reporting Facility
EDT Latitude Longitude Course Direction KTS MPH feet Rate Location/Type
Thu 10:06:46 AM 24.6822 -81.7750 334° Northwest 211 243 6,000  Level Miami Center
Thu 10:07:46 AM 24.7314 -81.8042 332° Northwest 213 245 8,200 2,250 Climbing Miami Center
Thu 10:08:46 AM 24.7764 -81.8311 331° Northwest 207 238 10,500 1,950 Climbing Miami Center
Thu 10:09:46 AM 24.8275 -81.8608 332° Northwest 201 231 12,100 700 Climbing Miami Center
Thu 10:10:00 AM 24.8309 -81.9476 318° Northwest  Level FlightAware Approximate
Thu 10:10:46 AM 24.8931 -81.8978 333° Northwest 224 258 11,900  Level Miami Center
Thu 10:11:00 AM 24.8794 -81.9593 13° North  Level FlightAware Approximate
Thu 10:11:46 AM 24.9675 -81.9236 343° North 255 293 12,000  Level Miami Center
Thu 10:12:46 AM 25.0514 -81.9133 North 276 318 12,000  Level Miami Center
Thu 10:13:46 AM 25.1417 -81.9011 North 288 331 12,000 -150 Level Miami Center
Thu 10:14:46 AM 25.2275 -81.8886 North 299 344 11,700 -550 Descending Miami Center
Thu 10:15:46 AM 25.3158 -81.8761 North 305 351 10,900 -800 Descending Miami Center
Thu 10:16:46 AM 25.4017 -81.8658 North 310 357 10,100 -750 Descending Miami Center
Thu 10:17:46 AM 25.4708 -81.8594 North 310 357 9,400 -1,000 Descending Miami Center
Thu 10:18:46 AM 25.5736 -81.8478 North 310 357 8,100 -1,450 Descending Miami Center
Thu 10:19:46 AM 25.6594 -81.8350 North 310 357 6,500 -1,600 Descending Miami Center
Thu 10:20:46 AM 25.7350 -81.8267 North 317 365 4,900 -1,250 Descending Miami Center
Thu 10:21:46 AM 25.8167 -81.8161 North 305 351 4,000 -750 Descending Miami Center
Thu 10:22:46 AM 25.8850 -81.8353 346° North 260 299 3,400 -750 Descending Miami Center
Thu 10:23:46 AM 25.9594 -81.8544 347° North 255 293 2,500 300 Descending Miami Center
Thu 10:24:46 AM 26.0258 -81.8689 349° North 255 293 4,000 750 Climbing Miami Center
Thu 10:25:46 AM 26.0942 -81.8833 349° North 255 293 4,000  Level Miami Center
Thu 10:26:46 AM 26.1481 -81.8947 349° North 255 293 4,000  Level Miami Center
Thu 10:28:46 AM 26.1481 -81.8947 204° Southwest 255 293 4,000  Level Miami Center
Thu 10:31:00 AM 26.1497 -81.7859 89° East  Level FlightAware Approximate

Login

Don't have an account? Register now (free) for customized features, flight alerts, and more!